Terminal Aerodrome Forecast
Issued by NWS

Home | Current Version | Previous Version | Text Only | Print | Product List | Glossary On
Versions: 1 2 3 4 5 6 7 8 9 10 11 12 13
573
FTUS42 KTAE 260522
TAFECP
TAF
KECP 260522Z 2606/2706 VRB06KT 3SM SHRA VCTS OVC040CB
     FM260700 VRB06KT 5SM BR SCT020 BKN040
     FM261300 17010KT P6SM BKN040
     FM261800 18012KT P6SM SCT040=

USA.gov is the U.S. government's official web portal to all federal, state and local government web resources and services.